| time (UTC) | temp F | wind direction | speed MPH | gust MPH | rain 1hr in | rain 24hr in | rain mn in | humidity % | barometer mb |
| 20260509180013 | 61 | 20 | 5.0 | 10.0 | 0.00 | 0.00 | 0.00 | 44 | 1019.6 |
| 20260509174507 | 59 | 11 | 3.0 | 9.0 | 0.00 | 0.00 | 0.00 | 52 | 1019.5 |
| 20260509173005 | 58 | 340 | 2.0 | 7.0 | 0.00 | 0.00 | 0.00 | 51 | 1019.7 |
| 20260509171503 | 58 | 305 | 0.0 | 5.0 | 0.00 | 0.00 | 0.00 | 52 | 1019.8 |
| 20260509170002 | 57 | 258 | 1.0 | 7.0 | 0.00 | 0.00 | 0.00 | 54 | 1020.0 |
| 20260509164559 | 56 | 293 | 3.0 | 5.0 | 0.00 | 0.00 | 0.00 | 58 | 1020.1 |
| 20260509163056 | 54 | 317 | 1.0 | 4.0 | 0.00 | 0.00 | 0.00 | 61 | 1020.2 |
| 20260509161656 | 52 | 301 | 0.0 | 7.0 | 0.00 | 0.00 | 0.00 | 64 | 1020.2 |
| 20260509160056 | 51 | 31 | 3.0 | 7.0 | 0.00 | 0.00 | 0.00 | 65 | 1020.4 |
| 20260509154554 | 53 | 98 | 0.0 | 2.0 | 0.00 | 0.00 | 0.00 | 61 | 1020.5 |
| 20260509153054 | 50 | 301 | 1.0 | 3.0 | 0.00 | 0.00 | 0.00 | 67 | 1020.5 |
| 20260509151557 | 48 | 88 | 2.0 | 6.0 | 0.00 | 0.00 | 0.00 | 70 | 1020.6 |
| 20260509144605 | 44 | 97 | 1.0 | 5.0 | 0.00 | 0.00 | 0.00 | 75 | 1021.0 |
| 20260509143113 | 43 | 100 | 2.0 | 5.0 | 0.00 | 0.00 | 0.00 | 77 | 1021.0 |
| 20260509141549 | 42 | 101 | 2.0 | 5.0 | 0.00 | 0.00 | 0.00 | 77 | 1021.1 |
| 20260509140057 | 40 | 106 | 2.0 | 5.0 | 0.00 | 0.00 | 0.00 | 78 | 1021.2 |
| 20260509134605 | 41 | 108 | 1.0 | 2.0 | 0.00 | 0.00 | 0.00 | 77 | 1021.1 |
| 20260509133048 | 39 | 13 | 0.0 | 2.0 | 0.00 | 0.00 | 0.00 | 81 | 1020.8 |
| 20260509131545 | 37 | 132 | 0.0 | 1.0 | 0.00 | 0.00 | 0.00 | 84 | 1020.8 |
| 20260509130054 | 35 | 113 | 1.0 | 3.0 | 0.00 | 0.00 | 0.00 | 87 | 1020.6 |
| 20260509124543 | 35 | 92 | 2.0 | 5.0 | 0.00 | 0.00 | 0.00 | 87 | 1020.5 |
| 20260509123040 | 36 | 113 | 0.0 | 2.0 | 0.00 | 0.00 | 0.00 | 84 | 1020.4 |
| 20260509121543 | 37 | 131 | 1.0 | 3.0 | 0.00 | 0.00 | 0.00 | 85 | 1020.2 |
| 20260509120034 | 36 | 127 | 1.0 | 3.0 | 0.00 | 0.00 | 0.00 | 85 | 1020.1 |
| 20260509114536 | 37 | 200 | 0.0 | 3.0 | 0.00 | 0.00 | 0.00 | 85 | 1020.0 |
| 20260509113034 | 37 | 122 | 0.0 | 2.0 | 0.00 | 0.00 | 0.00 | 84 | 1020.0 |
| 20260509111524 | 37 | 113 | 0.0 | 2.0 | 0.00 | 0.00 | 0.00 | 83 | 1019.8 |
| 20260509110020 | 38 | 210 | 0.0 | 1.0 | 0.00 | 0.00 | 0.00 | 82 | 1019.9 |
| 20260509104532 | 39 | 104 | 1.0 | 3.0 | 0.00 | 0.00 | 0.00 | 80 | 1019.7 |
| 20260509103013 | 40 | 120 | 1.0 | 3.0 | 0.00 | 0.00 | 0.00 | 78 | 1019.5 |
| 20260509101509 | 42 | 235 | 1.0 | 2.0 | 0.00 | 0.00 | 0.00 | 75 | 1019.5 |
| 20260509100007 | 44 | 245 | 1.0 | 2.0 | 0.00 | 0.00 | 0.00 | 74 | 1019.4 |
| 20260509094515 | 43 | 310 | 0.0 | 2.0 | 0.00 | 0.00 | 0.00 | 72 | 1019.3 |
| 20260509093001 | 46 | 284 | 1.0 | 4.0 | 0.00 | 0.00 | 0.00 | 67 | 1019.2 |
| 20260509091605 | 47 | 250 | 2.0 | 4.0 | 0.00 | 0.00 | 0.00 | 66 | 1019.1 |
| 20260509090104 | 47 | 237 | 1.0 | 3.0 | 0.00 | 0.00 | 0.00 | 66 | 1019.2 |
| 20260509084554 | 48 | 294 | 1.0 | 4.0 | 0.00 | 0.00 | 0.00 | 64 | 1019.1 |
| 20260509083051 | 48 | 283 | 1.0 | 3.0 | 0.00 | 0.00 | 0.00 | 63 | 1019.0 |
| 20260509081548 | 50 | 297 | 1.0 | 2.0 | 0.00 | 0.00 | 0.00 | 60 | 1018.9 |
| 20260509080045 | 51 | 283 | 1.0 | 6.0 | 0.00 | 0.00 | 0.00 | 58 | 1018.8 |
| 20260509074642 | 51 | 284 | 0.0 | 3.0 | 0.00 | 0.00 | 0.00 | 57 | 1018.8 |
| 20260509073038 | 53 | 286 | 0.0 | 3.0 | 0.00 | 0.00 | 0.00 | 55 | 1018.8 |
| 20260509071540 | 53 | 341 | 1.0 | 6.0 | 0.00 | 0.00 | 0.00 | 55 | 1018.6 |
| 20260509070032 | 53 | 269 | 1.0 | 6.0 | 0.00 | 0.00 | 0.00 | 53 | 1018.3 |
| 20260509064540 | 53 | 315 | 2.0 | 4.0 | 0.00 | 0.00 | 0.00 | 53 | 1018.2 |
| 20260509063030 | 54 | 293 | 1.0 | 6.0 | 0.00 | 0.00 | 0.00 | 50 | 1018.2 |
| 20260509061531 | 56 | 274 | 4.0 | 9.0 | 0.00 | 0.00 | 0.00 | 48 | 1018.2 |
| 20260509060036 | 56 | 307 | 2.0 | 10.0 | 0.00 | 0.00 | 0.00 | 48 | 1018.1 |
| 20260509054534 | 57 | 257 | 4.0 | 11.0 | 0.00 | 0.00 | 0.00 | 47 | 1017.8 |
| 20260509053025 | 57 | 295 | 6.0 | 17.0 | 0.00 | 0.00 | 0.00 | 46 | 1017.6 |
| 20260509051523 | 58 | 328 | 8.0 | 16.0 | 0.00 | 0.00 | 0.00 | 44 | 1017.5 |
| 20260509050021 | 58 | 293 | 5.0 | 9.0 | 0.00 | 0.00 | 0.00 | 44 | 1017.2 |
| 20260509044519 | 59 | 265 | 2.0 | 8.0 | 0.00 | 0.00 | 0.00 | 42 | 1017.0 |
| 20260509043017 | 59 | 324 | 5.0 | 11.0 | 0.00 | 0.00 | 0.00 | 40 | 1017.0 |
| 20260509041516 | 60 | 278 | 0.0 | 14.0 | 0.00 | 0.00 | 0.00 | 40 | 1016.7 |
| 20260509040015 | 61 | 290 | 7.0 | 16.0 | 0.00 | 0.00 | 0.00 | 39 | 1016.6 |
| 20260509034513 | 61 | 290 | 9.0 | 17.0 | 0.00 | 0.00 | 0.00 | 38 | 1016.3 |
| 20260509033012 | 61 | 304 | 6.0 | 21.0 | 0.00 | 0.00 | 0.00 | 37 | 1016.0 |
| 20260509031512 | 61 | 299 | 5.0 | 15.0 | 0.00 | 0.00 | 0.00 | 37 | 1015.8 |
| 20260509030012 | 62 | 274 | 10.0 | 20.0 | 0.00 | 0.00 | 0.00 | 36 | 1015.7 |
| 20260509024511 | 63 | 286 | 7.0 | 14.0 | 0.00 | 0.00 | 0.00 | 34 | 1015.4 |
| 20260509023010 | 64 | 275 | 6.0 | 16.0 | 0.00 | 0.00 | 0.00 | 32 | 1015.3 |
| 20260509021509 | 65 | 290 | 8.0 | 21.0 | 0.00 | 0.00 | 0.00 | 30 | 1015.2 |
| 20260509020017 | 65 | 317 | 7.0 | 13.0 | 0.00 | 0.00 | 0.00 | 29 | 1014.9 |
| 20260509014515 | 66 | 312 | 6.0 | 20.0 | 0.00 | 0.00 | 0.00 | 28 | 1014.9 |
| 20260509011507 | 67 | 269 | 13.0 | 26.0 | 0.00 | 0.00 | 0.00 | 25 | 1014.8 |
| 20260509010006 | 68 | 282 | 13.0 | 22.0 | 0.00 | 0.00 | 0.00 | 25 | 1014.7 |
| 20260509004510 | 68 | 303 | 9.0 | 18.0 | 0.00 | 0.00 | 0.00 | 28 | 1014.5 |
| 20260509003005 | 69 | 252 | 7.0 | 16.0 | 0.00 | 0.00 | 0.00 | 31 | 1014.4 |
| 20260509001504 | 69 | 302 | 6.0 | 12.0 | 0.00 | 0.00 | 0.00 | 33 | 1014.4 |
| 20260509000002 | 69 | 293 | 5.0 | 12.0 | 0.00 | 0.00 | 0.00 | 34 | 1014.3 |
| 20260508234500 | 69 | 267 | 10.0 | 16.0 | 0.00 | 0.00 | 0.00 | 35 | 1014.5 |
| 20260508233124 | 68 | 321 | 6.0 | 12.0 | 0.00 | 0.00 | 0.00 | 36 | 1014.6 |
| 20260508231600 | 68 | 319 | 8.0 | 16.0 | 0.00 | 0.00 | 0.00 | 35 | 1014.7 |
| 20260508230101 | 68 | 297 | 9.0 | 16.0 | 0.00 | 0.00 | 0.00 | 35 | 1014.8 |
| 20260508224558 | 68 | 330 | 6.0 | 15.0 | 0.00 | 0.00 | 0.00 | 33 | 1014.8 |
| 20260508223057 | 67 | 336 | 8.0 | 15.0 | 0.00 | 0.00 | 0.00 | 32 | 1014.7 |
| 20260508221556 | 67 | 297 | 4.0 | 13.0 | 0.00 | 0.00 | 0.00 | 31 | 1014.7 |
| 20260508220056 | 67 | 285 | 5.0 | 11.0 | 0.00 | 0.00 | 0.00 | 31 | 1014.9 |
| 20260508214555 | 67 | 277 | 9.0 | 17.0 | 0.00 | 0.00 | 0.00 | 31 | 1014.8 |
| 20260508213054 | 67 | 281 | 9.0 | 18.0 | 0.00 | 0.00 | 0.00 | 29 | 1014.7 |
| 20260508211554 | 68 | 318 | 9.0 | 19.0 | 0.00 | 0.00 | 0.00 | 29 | 1014.7 |
| 20260508210052 | 68 | 286 | 13.0 | 18.0 | 0.00 | 0.00 | 0.00 | 28 | 1014.7 |
| 20260508204554 | 67 | 309 | 10.0 | 18.0 | 0.00 | 0.00 | 0.00 | 29 | 1014.8 |
| 20260508203049 | 68 | 291 | 10.0 | 20.0 | 0.00 | 0.00 | 0.00 | 29 | 1014.7 |
| 20260508201549 | 68 | 300 | 5.0 | 20.0 | 0.00 | 0.00 | 0.00 | 28 | 1014.7 |
| 20260508200103 | 65 | 13 | 8.0 | 17.0 | 0.00 | 0.00 | 0.00 | 31 | 1014.7 |
| 20260508194543 | 65 | 305 | 7.0 | 14.0 | 0.00 | 0.00 | 0.00 | 30 | 1014.8 |
| 20260508193055 | 65 | 316 | 6.0 | 14.0 | 0.00 | 0.00 | 0.00 | 31 | 1014.8 |
| 20260508191542 | 65 | 335 | 8.0 | 11.0 | 0.00 | 0.00 | 0.00 | 28 | 1014.9 |
| 20260508190038 | 64 | 338 | 6.0 | 14.0 | 0.00 | 0.00 | 0.00 | 28 | 1014.8 |
| 20260508184535 | 64 | 296 | 6.0 | 14.0 | 0.00 | 0.00 | 0.00 | 29 | 1015.0 |
| 20260508183032 | 63 | 313 | 4.0 | 8.0 | 0.00 | 0.00 | 0.00 | 35 | 1015.1 |
| 20260508181629 | 60 | 326 | 3.0 | 5.0 | 0.00 | 0.00 | 0.00 | 53 | 1015.2 |